Airfield :







YOU CAN JOIN US ON...

 
LOGIN :

Register | Disclaimer

   EN    FR    IT 

 









Legend :    VFR   Marginal VFR   IFR   Intensive IFR   Very Intensive IFR
Visi :
Ceiling :
>= 8 km
>= 3000ft
5 to 8 km
1000 to 3000 ft
1500m to 5 km
500 to 1000 ft
800 to 1500m
200 to 500 ft
< 800m
< 200 ft
Symbols :   Thunderstorms  Fog  Heavy snow  Heavy precipitations  Wind > 20 kt






- Airport Elevation : 58 ft
- IATA code : POS


TTPP - Piarco Int.

CURRENT METAR :
  • 220000Z 11005KT 4000 -SHRA SCT018 28/23 Q1011 NOSIG

EXPIRED METARs :
  • 212300Z 11003KT 4000 HZ FEW018 29/23 Q1011 NOSIG
  • 212200Z 11004KT 9999 FEW018 30/24 Q1011 NOSIG
  • 212100Z 11011KT 4000 HZ FEW019 30/24 Q1010 NOSIG
  • 212000Z 11013KT 4000 HZ FEW022 31/21 Q1010 NOSIG
  • 211900Z 11011KT 4000 1500S HZ FEW025 32/23 Q1011 NOSIG RMK FU- S

TAF TAF TTPP
Valid from the 22 at 00:00 until the 23 at 00:00 UTC


212200Z 2200/2224 00000KT 6000 FEW016
BECMG 2211/2213 11012KT 8000 SCT022
TTZP FIR / North America



MET'MAP, your aeronautical weather chart ! - Copyright ORBIFLY December 2007 - Disclaimer

ORBIFLY MET'MAP TEAM :

Programming & Development : Alexandra Zaïnal
Original concept : Baudouin d'Aumeries
Technical & hardware support : Manuel Goepfert
Assistance : Marc-Olivier Méhu




SOURCES & CREDITS :

   NOAA